Latest Weather Observations for Meekatharra

IDW60801

Issued at 1:02 pm WST Friday 31 July 2015 (issued every 30 minutes, with the page automatically refreshed every 10 minutes)

About weather observations | Map of weather stations | Latest weather observations for WA | Other Formats
Station Details ID: 007045 Name: MEEKATHARRA AIRPORT Lat: -26.61 Lon: 118.54 Height: 517.0 m
Data from the previous 72 hours. | See also: Recent months at Meekatharra
Date/Time
WST
Temp
°C
App
Temp
°C
Dew
Point
Rel
Hum
%
Delta-T
°C
Wind Press
QNH
hPa
Press
MSL
hPa
Rain
since 9 am
mm
Dir
 
Spd
km/h
Gust
km/h
Spd
kts
Gust
kts
31/01:00pm 28.0 21.6 7.1 26 11.4 NW 30 41 16 22 1014.4 - 0.0
31/12:30pm 27.9 22.7 7.2 27 11.3 NW 24 37 13 20 1015.1 - 0.0
31/12:00pm 27.6 22.8 7.3 27 11.1 NW 22 33 12 18 1015.6 1015.1 0.0
31/11:30am 27.1 22.2 7.0 28 10.9 NNW 22 35 12 19 1016.2 - 0.0
31/11:00am 26.2 21.3 6.9 29 10.4 N 22 30 12 16 1016.7 - 0.0
31/10:30am 25.1 21.2 7.0 31 9.7 N 17 24 9 13 1017.1 - 0.0
31/10:00am 23.5 19.6 7.2 35 8.7 NNW 17 20 9 11 1017.4 - 0.0
31/09:30am 22.1 18.5 6.9 37 8.0 N 15 20 8 11 1017.6 - 0.0
31/09:00am 20.9 17.4 7.2 41 7.2 NNW 15 19 8 10 1017.7 1017.3 0.0
31/08:30am 19.3 16.2 7.2 45 6.3 N 13 15 7 8 1017.7 - 0.0
31/08:00am 17.1 15.1 6.9 51 5.2 N 7 11 4 6 1017.6 - 0.0
31/07:30am 15.2 12.8 7.1 58 4.1 NNE 9 13 5 7 1017.2 - 0.0
31/07:00am 13.3 11.0 7.3 67 3.0 N 9 11 5 6 1017.2 - 0.0
31/06:30am 13.4 11.0 7.0 65 3.2 N 9 11 5 6 1017.1 - 0.0
31/06:00am 13.6 11.2 7.2 65 3.2 NNE 9 11 5 6 1016.9 1016.4 0.0
31/05:30am 14.0 11.6 7.0 62 3.5 NNE 9 11 5 6 1016.9 - 0.0
31/05:00am 14.3 11.5 7.1 62 3.6 NNE 11 11 6 6 1017.0 - 0.0
31/04:30am 14.7 12.0 7.2 61 3.8 NNE 11 13 6 7 1017.2 - 0.0
31/04:00am 14.5 11.9 7.6 63 3.5 NNE 11 13 6 7 1017.4 - 0.0
31/03:30am 14.7 12.1 7.6 62 3.6 NNE 11 13 6 7 1017.7 - 0.0
31/03:00am 15.2 12.6 7.8 61 3.8 NNE 11 11 6 6 1017.9 1017.5 0.0
31/02:30am 15.3 13.1 7.9 61 3.8 NNE 9 11 5 6 1018.0 - 0.0
31/02:00am 16.1 13.5 7.7 57 4.3 NNE 11 13 6 7 1018.5 - 0.0
31/01:30am 15.8 13.6 7.8 59 4.1 N 9 11 5 6 1019.0 - 0.0
31/01:00am 16.3 14.1 8.0 58 4.3 NNE 9 11 5 6 1019.3 - 0.0
31/12:30am 16.8 14.6 7.9 55 4.6 NNE 9 9 5 5 1019.3 - 0.0
31/12:00am 16.2 14.3 9.2 63 3.7 NNE 9 9 5 5 1019.6 1019.2 0.0
 
Date/Time
WST
Temp
°C
App
Temp
°C
Dew
Point
Rel
Hum
%
Delta-T
°C
Wind Press
QNH
hPa
Press
MSL
hPa
Rain
since 9 am
mm
Dir
 
Spd
km/h
Gust
km/h
Spd
kts
Gust
kts
30/11:30pm 16.8 14.7 8.4 57 4.4 NNE 9 11 5 6 1020.0 - 0.0
30/11:00pm 17.0 15.0 8.6 57 4.4 NNE 9 9 5 5 1020.5 - 0.0
30/10:30pm 17.4 15.0 8.5 56 4.7 NE 11 11 6 6 1020.7 - 0.0
30/10:00pm 17.5 15.6 9.0 57 4.5 NE 9 9 5 5 1021.0 - 0.0
30/09:30pm 17.9 16.6 9.1 56 4.7 NNW 6 6 3 3 1021.1 - 0.0
30/09:00pm 18.4 17.1 9.3 55 4.9 NW 6 6 3 3 1021.2 1020.8 0.0
30/08:30pm 18.8 17.6 10.2 57 4.7 NW 7 7 4 4 1021.2 - 0.0
30/08:00pm 19.5 18.4 9.8 53 5.3 NW 6 7 3 4 1021.0 - 0.0
30/07:30pm 20.1 18.8 9.2 49 5.9 NW 6 7 3 4 1021.0 - 0.0
30/07:00pm 21.2 20.1 10.0 48 6.2 NW 6 7 3 4 1020.9 - 0.0
30/06:30pm 23.0 21.8 10.3 44 7.1 WNW 7 7 4 4 1020.7 - 0.0
30/06:00pm 24.2 23.0 10.2 41 7.9 WNW 7 9 4 5 1020.5 1020.0 0.0
30/05:30pm 25.6 22.6 7.8 32 9.7 NNW 13 17 7 9 1020.3 - 0.0
30/05:00pm 26.9 22.6 6.9 28 10.8 NW 19 26 10 14 1020.2 - 0.0
30/04:30pm 27.5 23.5 6.8 27 11.2 NNW 17 30 9 16 1019.9 - 0.0
30/04:00pm 27.8 23.9 7.0 26 11.3 NNW 17 28 9 15 1019.9 - 0.0
30/03:30pm 27.9 24.9 7.5 27 11.2 N 13 22 7 12 1019.9 - 0.0
30/03:00pm 27.9 23.6 7.7 28 11.1 NNW 20 32 11 17 1020.2 1019.7 0.0
30/02:30pm 27.7 23.6 7.9 28 10.9 N 19 28 10 15 1020.5 - 0.0
30/02:00pm 27.5 23.9 8.4 30 10.6 NNW 17 26 9 14 1020.6 - 0.0
30/01:30pm 27.0 23.7 8.1 30 10.4 N 15 26 8 14 1021.0 - 0.0
30/01:00pm 26.6 22.6 8.3 31 10.1 N 19 26 10 14 1021.2 - 0.0
30/12:30pm 25.9 23.2 9.0 34 9.4 N 13 22 7 12 1021.7 - 0.0
30/12:00pm 25.6 23.2 10.0 37 8.8 N 13 22 7 12 1022.3 1021.8 0.0
30/11:30am 25.2 22.6 10.6 40 8.3 NNE 15 20 8 11 1022.6 - 0.0
30/11:00am 23.7 20.3 10.4 43 7.5 NE 19 24 10 13 1022.8 - 0.0
30/10:30am 23.4 20.3 10.2 43 7.4 NE 17 20 9 11 1023.2 - 0.0
30/10:00am 21.7 18.7 10.6 49 6.2 NE 17 22 9 12 1023.5 - 0.0
30/09:30am 20.2 17.3 10.9 55 5.2 NE 17 20 9 11 1023.6 - 0.0
30/09:00am 19.0 16.9 11.1 60 4.4 NE 13 19 7 10 1023.4 1023.0 0.0
30/08:30am 16.8 15.2 11.4 70 3.0 NNE 11 15 6 8 1023.3 - 0.0
30/08:00am 15.6 13.8 11.0 74 2.5 NNE 11 15 6 8 1023.0 - 0.0
30/07:30am 14.3 13.1 11.6 84 1.5 NE 9 11 5 6 1022.9 - 0.0
30/07:00am 14.2 13.1 12.0 87 1.2 ENE 9 11 5 6 1022.6 - 0.0
30/06:30am 14.6 13.2 12.3 86 1.3 ENE 11 17 6 9 1022.5 - 0.0
30/06:00am 14.2 12.9 12.6 90 0.9 ENE 11 13 6 7 1022.3 1021.8 0.0
30/05:30am 14.5 13.2 12.5 88 1.1 ENE 11 13 6 7 1022.1 - 0.0
30/05:00am 14.7 13.1 12.7 88 1.1 E 13 17 7 9 1021.9 - 0.0
30/04:30am 14.8 13.2 12.7 87 1.2 E 13 15 7 8 1022.3 - 0.0
30/04:00am 15.0 13.5 13.2 89 1.0 E 13 17 7 9 1022.3 - 0.0
30/03:30am 15.1 13.9 13.9 92 0.7 E 13 17 7 9 1022.6 - 0.0
30/03:00am 15.4 14.8 14.5 94 0.5 ESE 11 13 6 7 1022.9 1022.5 0.0
30/02:30am 15.9 14.9 14.7 93 0.7 SE 13 19 7 10 1023.0 - 0.0
30/02:00am 16.1 15.2 14.9 93 0.7 SE 13 17 7 9 1023.2 - 0.0
30/01:30am 16.5 15.7 15.1 91 0.8 SE 13 17 7 9 1023.3 - 0.0
30/01:00am 16.9 15.8 15.4 91 0.9 SSE 15 19 8 10 1023.6 - 0.0
30/12:30am 17.3 15.9 15.5 89 1.1 SSE 17 24 9 13 1023.9 - 0.0
30/12:22am 17.4 16.0 15.6 89 1.1 S 17 22 9 12 1023.9 - 0.0
30/12:00am 17.7 15.3 15.5 87 1.3 S 22 30 12 16 1024.0 1023.6 0.0
 
Date/Time
WST
Temp
°C
App
Temp
°C
Dew
Point
Rel
Hum
%
Delta-T
°C
Wind Press
QNH
hPa
Press
MSL
hPa
Rain
since 9 am
mm
Dir
 
Spd
km/h
Gust
km/h
Spd
kts
Gust
kts
29/11:39pm 17.6 15.6 15.6 88 1.2 S 20 30 11 16 1023.9 - 0.0
29/11:30pm 17.6 15.6 15.6 88 1.2 S 20 32 11 17 1023.7 - 0.0
29/11:00pm 17.9 16.9 15.7 87 1.3 S 15 20 8 11 1023.4 - 0.0
29/10:30pm 18.0 15.7 12.9 72 2.9 S 17 20 9 11 1023.3 - 0.0
29/10:00pm 19.7 15.8 9.4 51 5.6 SW 20 26 11 14 1023.1 - 0.0
29/09:30pm 18.0 16.7 9.9 59 4.4 W 7 9 4 5 1022.8 - 0.0
29/09:00pm 18.2 16.9 9.9 58 4.5 W 7 9 4 5 1022.8 1022.4 0.0
29/08:30pm 19.3 18.0 10.0 55 5.1 W 7 9 4 5 1022.7 - 0.0
29/08:00pm 19.8 18.5 9.9 53 5.4 WNW 7 9 4 5 1022.3 - 0.0
29/07:30pm 21.8 20.3 9.2 44 6.9 WNW 7 9 4 5 1021.9 - 0.0
29/07:00pm 22.7 20.7 8.7 40 7.6 W 9 11 5 6 1021.7 - 0.0
29/06:30pm 23.2 20.8 8.5 39 8.0 NW 11 15 6 8 1021.2 - 0.0
29/06:00pm 24.0 21.2 8.4 37 8.5 NW 13 17 7 9 1020.8 1020.3 0.0
29/05:30pm 25.1 21.4 8.0 33 9.3 NW 17 24 9 13 1020.4 - 0.0
29/05:00pm 26.0 21.8 7.6 31 10.0 NW 19 26 10 14 1020.4 - 0.0
29/04:30pm 26.6 22.5 7.8 30 10.3 WNW 19 28 10 15 1020.4 - 0.0
29/04:00pm 26.8 22.8 8.1 30 10.3 WNW 19 28 10 15 1020.4 - 0.0
29/03:30pm 26.9 21.8 7.7 29 10.5 NW 24 37 13 20 1020.5 - 0.0
29/03:00pm 26.6 22.3 7.8 30 10.3 WNW 20 28 11 15 1020.6 1020.1 0.0
29/02:30pm 27.3 22.5 7.5 28 10.8 WNW 22 33 12 18 1020.7 - 0.0
29/02:00pm 26.5 22.2 7.9 30 10.2 NW 20 30 11 16 1020.7 - 0.0
29/01:30pm 26.1 20.7 7.8 31 10.0 NW 26 39 14 21 1021.1 - 0.0
29/01:00pm 26.3 22.2 7.8 31 10.1 NW 19 33 10 18 1021.3 - 0.0
29/12:30pm 25.2 20.2 7.9 33 9.4 WNW 24 35 13 19 1022.0 - 0.0
29/12:00pm 25.1 20.8 8.0 33 9.3 NW 20 32 11 17 1022.6 1022.2 0.0
29/11:30am 24.9 20.6 7.7 33 9.3 WNW 20 32 11 17 1022.9 - 0.0
29/11:00am 24.3 20.6 7.8 34 8.9 NW 17 28 9 15 1023.1 - 0.0
29/10:30am 23.4 20.2 8.5 38 8.1 WNW 15 22 8 12 1023.4 - 0.0
29/10:00am 22.6 19.9 9.1 42 7.4 NNW 13 20 7 11 1023.4 - 0.0
29/09:30am 21.2 19.5 9.7 47 6.3 N 9 11 5 6 1023.5 - 0.0
29/09:00am 19.5 17.8 8.4 48 5.9 N 7 11 4 6 1023.5 1023.1 0.0
29/08:30am 17.8 16.1 8.3 53 5.0 N 7 11 4 6 1023.3 - 0.0
29/08:00am 15.8 13.6 7.8 59 4.1 N 9 11 5 6 1023.1 - 0.0
29/07:30am 13.9 11.9 7.3 64 3.3 NNE 7 9 4 5 1022.7 - 0.0
29/07:00am 12.4 10.5 7.4 71 2.5 N 7 9 4 5 1022.4 - 0.0
29/06:30am 12.6 10.7 7.4 70 2.6 N 7 9 4 5 1022.1 - 0.0
29/06:00am 12.8 10.9 7.4 69 2.7 N 7 9 4 5 1021.9 1021.5 0.0
29/05:30am 12.9 11.0 7.5 69 2.7 N 7 9 4 5 1021.6 - 0.0
29/05:00am 12.9 10.9 7.3 69 2.8 NNW 7 7 4 4 1021.5 - 0.0
29/04:30am 13.9 12.1 7.8 66 3.1 NNW 7 9 4 5 1021.4 - 0.0
29/04:00am 14.2 12.5 7.5 64 3.4 N 6 7 3 4 1021.4 - 0.0
29/03:30am 14.7 12.9 7.8 63 3.5 NNW 7 7 4 4 1021.5 - 0.0
29/03:00am 14.9 13.0 7.6 61 3.7 NW 7 7 4 4 1021.5 1021.1 0.0
29/02:30am 15.3 12.9 6.9 57 4.2 NW 9 11 5 6 1021.6 - 0.0
29/02:00am 15.4 13.1 7.3 58 4.1 NW 9 11 5 6 1021.7 - 0.0
29/01:30am 15.8 13.3 6.6 54 4.6 NW 9 11 5 6 1021.9 - 0.0
29/01:00am 16.5 14.1 6.8 52 4.9 W 9 11 5 6 1022.1 - 0.0
29/12:30am 16.5 14.5 6.3 51 5.1 WNW 6 7 3 4 1022.1 - 0.0
29/12:00am 16.6 14.4 6.2 50 5.2 WNW 7 9 4 5 1022.3 1021.8 0.0
 
Date/Time
WST
Temp
°C
App
Temp
°C
Dew
Point
Rel
Hum
%
Delta-T
°C
Wind Press
QNH
hPa
Press
MSL
hPa
Rain
since 9 am
mm
Dir
 
Spd
km/h
Gust
km/h
Spd
kts
Gust
kts
28/11:30pm 18.1 15.1 6.2 45 6.0 NW 11 13 6 7 1022.3 - 0.0
28/11:00pm 18.1 15.0 5.7 44 6.2 NW 11 13 6 7 1022.5 - 0.0
28/10:30pm 18.9 16.2 5.5 41 6.7 NW 9 13 5 7 1022.5 - 0.0
28/10:00pm 19.5 16.4 5.6 40 7.0 NNW 11 13 6 7 1022.3 - 0.0
28/09:30pm 19.8 16.6 4.9 37 7.4 NW 11 13 6 7 1022.4 - 0.0
28/09:00pm 20.3 17.4 4.6 35 7.8 NW 9 13 5 7 1022.6 1022.2 0.0
28/08:30pm 20.5 17.7 5.2 36 7.7 NNW 9 11 5 6 1022.6 - 0.0
28/08:00pm 21.7 18.8 4.8 33 8.5 NNW 9 11 5 6 1022.4 - 0.0
28/07:30pm 21.7 18.8 4.8 33 8.5 NNW 9 11 5 6 1022.3 - 0.0
28/07:00pm 22.3 19.0 4.3 31 9.0 N 11 13 6 7 1021.6 - 0.0
28/06:30pm 23.0 19.7 4.3 29 9.4 NNW 11 13 6 7 1021.6 - 0.0
28/06:00pm 23.6 19.8 3.8 27 9.9 NNW 13 17 7 9 1021.3 1020.9 0.0
28/05:30pm 24.1 18.8 3.1 25 10.4 NW 20 28 11 15 1020.9 - 0.0
28/05:00pm 25.0 19.2 2.5 23 11.1 NW 22 28 12 15 1020.5 - 0.0
28/04:30pm 25.6 19.8 2.3 22 11.5 NNW 22 28 12 15 1020.4 - 0.0
28/04:00pm 25.9 20.1 2.2 21 11.7 NNW 22 30 12 16 1020.3 - 0.0
28/03:30pm 25.8 20.1 2.7 22 11.5 NNW 22 32 12 17 1020.2 - 0.0
28/03:00pm 26.1 20.3 2.3 21 11.8 NNW 22 30 12 16 1020.4 1019.9 0.0
28/02:30pm 25.6 20.0 3.3 23 11.2 NNW 22 30 12 16 1020.8 - 0.0
28/02:00pm 25.4 19.7 2.9 23 11.2 NNW 22 32 12 17 1021.2 - 0.0
28/01:30pm 24.8 18.7 2.8 24 10.9 N 24 33 13 18 1021.5 - 0.0

Other Formats:

Comma delimited format used in spreadsheet applications
http://www.bom.gov.au/fwo/IDW60801/IDW60801.94430.axf

JavaScript Object Notation format (JSON) in row-major order
http://www.bom.gov.au/fwo/IDW60801/IDW60801.94430.json